Time;durP1;ratioP1;P1;durP2;ratioP2;P2;SDS_P1;SDS_P2;PMS_P1;PMS_P2;Temp;Humidity;BMP_temperature;BMP_pressure;BME280_temperature;BME280_humidity;BME280_pressure;Samples;Min_cycle;Max_cycle;Signal;HPM_P1;HPM_P2
2021/04/28 00:00:58;;;;;;;1.50;1.40;;;9.50;62.50;;;;;;5053490;28;20067;-83
2021/04/28 00:03:24;;;;;;;1.40;1.30;;;9.50;62.50;;;;;;5052771;28;20041;-82
2021/04/28 00:05:50;;;;;;;1.75;1.65;;;9.50;62.50;;;;;;5052704;28;20397;-83
2021/04/28 00:08:16;;;;;;;1.48;1.13;;;9.50;62.40;;;;;;5052625;28;20037;-83
2021/04/28 00:10:42;;;;;;;1.85;1.60;;;9.50;62.30;;;;;;5052402;28;20493;-81
2021/04/28 00:13:11;;;;;;;1.60;1.50;;;9.40;62.30;;;;;;5052530;28;20037;-82
2021/04/28 00:15:40;;;;;;;1.48;1.23;;;9.40;62.20;;;;;;5051278;28;20049;-82
2021/04/28 00:18:06;;;;;;;1.38;1.27;;;9.40;62.10;;;;;;5052582;28;20047;-84
2021/04/28 00:20:38;;;;;;;2.45;1.30;;;9.40;62.00;;;;;;5052697;28;20036;-80
2021/04/28 00:23:05;;;;;;;1.08;1.00;;;9.40;62.00;;;;;;5052363;28;20052;-82
2021/04/28 00:25:33;;;;;;;1.77;1.27;;;9.40;61.90;;;;;;5052714;28;20167;-82
2021/04/28 00:27:59;;;;;;;1.40;1.30;;;9.40;61.80;;;;;;5052275;28;20075;-83
2021/04/28 00:30:26;;;;;;;1.50;1.40;;;9.50;61.70;;;;;;5052558;28;20082;-83
2021/04/28 00:32:52;;;;;;;0.98;0.98;;;9.40;61.50;;;;;;5055959;28;20028;-83
2021/04/28 00:35:21;;;;;;;1.77;1.25;;;9.40;61.60;;;;;;5054860;28;20095;-83
2021/04/28 00:37:47;;;;;;;3.25;1.30;;;9.40;61.60;;;;;;5056441;28;20481;-83
2021/04/28 00:40:25;;;;;;;1.63;1.40;;;9.40;61.50;;;;;;5056510;28;20072;-81
2021/04/28 00:42:51;;;;;;;1.13;1.02;;;9.40;61.40;;;;;;5055238;28;20090;-84
2021/04/28 00:45:19;;;;;;;1.30;1.20;;;9.40;61.30;;;;;;5056307;28;20043;-82
2021/04/28 00:47:46;;;;;;;2.20;0.98;;;9.40;61.30;;;;;;5056068;28;20078;-83
2021/04/28 00:50:15;;;;;;;1.67;1.33;;;9.40;61.30;;;;;;5055185;28;20068;-86
2021/04/28 00:52:41;;;;;;;2.30;1.13;;;9.40;61.30;;;;;;5056506;28;20102;-84
2021/04/28 00:55:09;;;;;;;1.40;1.30;;;9.40;61.30;;;;;;5055239;28;20043;-82
2021/04/28 00:57:35;;;;;;;1.30;1.20;;;9.40;61.30;;;;;;5055001;28;20043;-81
2021/04/28 01:00:08;;;;;;;1.10;1.00;;;9.40;61.20;;;;;;5055988;28;20051;-80
2021/04/28 01:02:34;;;;;;;1.30;1.20;;;9.40;61.20;;;;;;5054492;28;20044;-80
2021/04/28 01:05:01;;;;;;;1.25;1.10;;;9.40;61.20;;;;;;5056574;28;20124;-81
2021/04/28 01:07:29;;;;;;;1.40;1.30;;;9.40;61.10;;;;;;5054663;28;20037;-83
2021/04/28 01:09:55;;;;;;;1.10;1.00;;;9.40;61.10;;;;;;5056581;28;20466;-80
2021/04/28 01:12:22;;;;;;;1.30;1.20;;;9.40;61.10;;;;;;5054427;28;20037;-81
2021/04/28 01:14:52;;;;;;;1.40;1.30;;;9.40;61.10;;;;;;5055816;28;20106;-81
2021/04/28 01:17:21;;;;;;;2.85;1.23;;;9.30;61.00;;;;;;5054371;28;20420;-81
2021/04/28 01:19:47;;;;;;;5.00;1.58;;;9.40;61.10;;;;;;5054457;28;20035;-82
2021/04/28 01:22:14;;;;;;;1.33;1.20;;;9.30;61.00;;;;;;5038053;28;20041;-82
2021/04/28 01:24:41;;;;;;;1.45;1.20;;;9.30;61.10;;;;;;5037996;28;20040;-81
2021/04/28 01:27:16;;;;;;;1.20;1.10;;;9.30;61.10;;;;;;5054700;28;20082;-82
2021/04/28 01:29:45;;;;;;;1.52;1.35;;;9.30;61.00;;;;;;5054203;28;20032;-81
2021/04/28 01:32:17;;;;;;;1.70;1.40;;;9.30;60.90;;;;;;5054184;28;20417;-82
2021/04/28 01:34:45;;;;;;;1.25;1.00;;;9.30;60.90;;;;;;5038575;28;20067;-82
2021/04/28 01:37:12;;;;;;;1.30;1.20;;;9.30;61.60;;;;;;5037342;28;20037;-83
2021/04/28 01:39:41;;;;;;;1.50;1.35;;;9.30;61.10;;;;;;5054167;28;20029;-81
2021/04/28 01:42:09;;;;;;;1.42;1.30;;;9.30;61.10;;;;;;5055167;28;20120;-82
2021/04/28 01:44:38;;;;;;;1.42;1.33;;;9.30;61.10;;;;;;5053062;28;20036;-83
2021/04/28 01:47:05;;;;;;;1.40;1.30;;;9.20;61.10;;;;;;5053972;28;20036;-83
2021/04/28 01:49:31;;;;;;;1.40;1.30;;;9.20;61.10;;;;;;5054149;28;20124;-80
2021/04/28 01:51:59;;;;;;;3.17;1.23;;;9.20;61.00;;;;;;5053738;28;20131;-81
2021/04/28 01:54:28;;;;;;;1.50;1.40;;;9.30;61.00;;;;;;5054120;28;20095;-82
2021/04/28 01:56:56;;;;;;;1.50;1.40;;;9.20;60.80;;;;;;5053513;28;20426;-82
2021/04/28 01:59:23;;;;;;;2.75;1.13;;;9.20;60.80;;;;;;5055009;28;20124;-81
2021/04/28 02:01:59;;;;;;;1.58;1.40;;;9.20;60.80;;;;;;5055218;28;20548;-80
2021/04/28 02:04:32;;;;;;;1.52;1.42;;;9.20;60.80;;;;;;5055186;28;20040;-81
2021/04/28 02:06:58;;;;;;;1.13;1.05;;;9.20;60.90;;;;;;5054862;28;20041;-81
2021/04/28 02:09:24;;;;;;;1.83;1.52;;;9.20;61.00;;;;;;5054657;28;20056;-81
2021/04/28 02:11:51;;;;;;;1.85;1.63;;;9.10;61.00;;;;;;5053295;28;20505;-81
2021/04/28 02:14:21;;;;;;;1.80;1.67;;;9.10;61.10;;;;;;5053343;28;20536;-81
2021/04/28 02:17:13;;;;;;;1.77;1.67;;;9.10;61.20;;;;;;5047548;28;20060;-80
2021/04/28 02:19:43;;;;;;;1.75;1.65;;;9.20;61.20;;;;;;5054463;28;20505;-81
2021/04/28 02:22:12;;;;;;;1.80;1.55;;;9.20;61.20;;;;;;5054422;28;20456;-79
2021/04/28 02:24:47;;;;;;;2.35;1.50;;;9.20;61.10;;;;;;5054601;28;20450;-81
2021/04/28 02:27:17;;;;;;;3.42;1.55;;;9.20;61.20;;;;;;5053139;28;20544;-80
2021/04/28 02:29:45;;;;;;;1.55;1.42;;;9.10;61.30;;;;;;5053164;28;20044;-81
2021/04/28 02:32:12;;;;;;;2.25;1.77;;;9.10;61.30;;;;;;5052818;28;20052;-82
2021/04/28 02:34:59;;;;;;;;;;;9.10;61.40;;;;;;5053426;28;20049;-83
2021/04/28 02:38:13;;;;;;;1.73;1.63;;;9.10;61.40;;;;;;5046321;28;20011;-83
2021/04/28 02:41:01;;;;;;;1.73;1.10;;;9.10;61.20;;;;;;5067805;28;20036;-83
2021/04/28 02:43:30;;;;;;;1.98;1.60;;;9.10;61.10;;;;;;5053282;28;20039;-82
2021/04/28 02:46:13;;;;;;;2.63;1.58;;;9.10;61.10;;;;;;5053579;28;20048;-82
2021/04/28 02:48:44;;;;;;;2.72;1.85;;;9.10;61.10;;;;;;5052907;28;20028;-81
2021/04/28 02:51:31;;;;;;;3.65;1.60;;;9.10;60.90;;;;;;5053866;28;20098;-82
2021/04/28 02:54:00;;;;;;;1.30;1.20;;;9.10;60.90;;;;;;5056100;28;20036;-83
2021/04/28 02:56:29;;;;;;;1.98;1.88;;;9.10;60.80;;;;;;5052931;28;20390;-82
2021/04/28 02:58:56;;;;;;;2.05;1.50;;;9.10;60.90;;;;;;5052709;28;20388;-82
2021/04/28 03:01:25;;;;;;;1.90;1.58;;;9.10;60.90;;;;;;5054418;28;20159;-81
2021/04/28 03:03:54;;;;;;;4.00;1.70;;;9.10;60.90;;;;;;5053498;28;20041;-82
2021/04/28 03:06:40;;;;;;;1.65;1.45;;;9.10;60.90;;;;;;5052760;28;20055;-82
2021/04/28 03:09:08;;;;;;;1.88;1.48;;;9.10;60.80;;;;;;5052660;28;20564;-83
2021/04/28 03:11:37;;;;;;;1.60;1.50;;;9.10;60.80;;;;;;5052200;28;20467;-83
2021/04/28 03:14:13;;;;;;;1.80;1.70;;;9.10;60.70;;;;;;5052137;28;20033;-83
2021/04/28 03:16:41;;;;;;;2.17;1.77;;;9.10;60.60;;;;;;5052241;28;20037;-84
2021/04/28 03:19:27;;;;;;;1.95;1.70;;;9.20;60.60;;;;;;5052524;28;20044;-82
2021/04/28 03:21:53;;;;;;;1.67;1.45;;;9.20;60.60;;;;;;5052071;28;20040;-82
2021/04/28 03:24:22;;;;;;;2.22;1.65;;;9.20;60.60;;;;;;5052402;28;20037;-81
2021/04/28 03:26:55;;;;;;;2.28;2.08;;;9.10;61.20;;;;;;5053010;28;20041;-83
2021/04/28 03:29:23;;;;;;;2.15;1.65;;;9.10;60.60;;;;;;5051526;28;20037;-82
2021/04/28 03:31:53;;;;;;;1.65;1.55;;;9.10;60.60;;;;;;5051758;28;20037;-87
2021/04/28 03:34:19;;;;;;;1.60;1.50;;;9.20;60.50;;;;;;5053640;28;20094;-88
2021/04/28 03:36:45;;;;;;;1.48;1.38;;;9.20;60.30;;;;;;5052825;28;20040;-88
2021/04/28 03:39:19;;;;;;;2.45;2.25;;;9.30;60.40;;;;;;5049642;28;20025;-86
2021/04/28 03:41:46;;;;;;;1.63;1.50;;;9.20;60.30;;;;;;5052395;28;20036;-88
2021/04/28 03:44:12;;;;;;;2.35;1.67;;;9.30;60.30;;;;;;5034631;28;20386;-85
2021/04/28 03:46:39;;;;;;;2.00;1.80;;;9.30;60.30;;;;;;5054554;28;20028;-86
2021/04/28 03:49:05;;;;;;;2.13;1.80;;;9.30;60.20;;;;;;5056469;28;20397;-86
2021/04/28 03:51:33;;;;;;;2.10;1.92;;;9.30;60.10;;;;;;5058418;28;20052;-87
2021/04/28 03:54:20;;;;;;;2.30;1.83;;;9.30;60.10;;;;;;5057019;28;20067;-88
2021/04/28 03:56:54;;;;;;;1.73;1.55;;;9.30;60.10;;;;;;5052978;28;20037;-86
2021/04/28 03:59:20;;;;;;;3.00;1.90;;;9.40;60.10;;;;;;5055591;28;20036;-89
2021/04/28 04:01:52;;;;;;;2.10;2.00;;;9.40;60.00;;;;;;5053697;28;20029;-88
2021/04/28 04:04:19;;;;;;;2.40;2.20;;;9.50;60.00;;;;;;5051094;28;20458;-85
2021/04/28 04:06:57;;;;;;;2.05;1.90;;;9.50;59.80;;;;;;5048194;28;20568;-90
2021/04/28 04:09:55;;;;;;;2.50;2.30;;;9.50;59.80;;;;;;5049843;28;20041;-84
2021/04/28 04:12:21;;;;;;;2.22;2.13;;;9.70;59.70;;;;;;5050674;28;20041;-86
2021/04/28 04:14:54;;;;;;;2.45;2.25;;;10.20;59.20;;;;;;5050244;28;20057;-88
2021/04/28 04:17:20;;;;;;;3.20;2.17;;;11.00;58.20;;;;;;5047346;28;20029;-86
2021/04/28 04:19:52;;;;;;;3.28;2.63;;;11.70;56.80;;;;;;5034096;28;20037;-84
2021/04/28 04:22:35;;;;;;;2.00;1.90;;;12.60;55.60;;;;;;5049932;28;20032;-84
2021/04/28 04:25:25;;;;;;;2.47;1.83;;;13.40;54.10;;;;;;5020289;28;20049;-85
2021/04/28 04:27:53;;;;;;;2.05;1.75;;;14.20;52.80;;;;;;5050189;28;20037;-84
2021/04/28 04:30:41;;;;;;;2.03;1.80;;;14.80;51.40;;;;;;5049922;28;20032;-83
2021/04/28 04:33:26;;;;;;;1.95;1.83;;;15.40;50.20;;;;;;5048100;28;20064;-84
2021/04/28 04:36:11;;;;;;;1.83;1.73;;;15.70;49.80;;;;;;5050810;28;20473;-90
2021/04/28 04:38:55;;;;;;;1.83;1.70;;;16.00;49.70;;;;;;5053038;28;20043;-90
2021/04/28 04:41:31;;;;;;;2.38;1.70;;;16.40;49.00;;;;;;5052244;28;20566;-91
2021/04/28 04:44:17;;;;;;;1.98;1.83;;;16.70;48.50;;;;;;5052507;28;20086;-88
2021/04/28 04:46:59;;;;;;;2.13;1.92;;;17.10;47.90;;;;;;5052769;28;20064;-91
2021/04/28 04:49:25;;;;;;;2.22;1.70;;;17.60;47.20;;;;;;5051404;28;20079;-89
2021/04/28 04:51:51;;;;;;;1.60;1.50;;;18.10;46.30;;;;;;5053078;28;20048;-90
2021/04/28 04:54:16;;;;;;;1.80;1.70;;;18.80;45.40;;;;;;5052734;28;20120;-90
2021/04/28 04:56:43;;;;;;;2.03;1.50;;;19.40;44.40;;;;;;5052662;28;20485;-90
2021/04/28 04:59:14;;;;;;;3.33;1.40;;;19.90;43.50;;;;;;5052965;28;20099;-88
2021/04/28 05:01:40;;;;;;;1.23;1.13;;;20.50;42.90;;;;;;5052210;28;20045;-88
2021/04/28 05:04:06;;;;;;;1.25;1.15;;;20.90;42.10;;;;;;5052346;28;20041;-88
2021/04/28 05:06:32;;;;;;;1.20;1.10;;;21.30;41.30;;;;;;5052641;28;20045;-88
2021/04/28 05:08:58;;;;;;;1.35;1.15;;;21.60;40.80;;;;;;5050823;28;20044;-87
2021/04/28 05:11:25;;;;;;;1.00;1.00;;;22.00;40.10;;;;;;5052401;28;20049;-90
2021/04/28 05:13:51;;;;;;;1.00;0.95;;;22.30;39.70;;;;;;5052316;28;20033;-90
2021/04/28 05:16:17;;;;;;;0.90;0.90;;;22.50;38.90;;;;;;5051954;28;20049;-89
2021/04/28 05:18:43;;;;;;;1.17;0.90;;;22.60;38.70;;;;;;5055278;28;20045;-92
2021/04/28 05:21:09;;;;;;;0.70;0.70;;;22.60;38.50;;;;;;5056116;28;20029;-89
2021/04/28 05:23:35;;;;;;;0.75;0.75;;;22.70;38.60;;;;;;5056806;28;20060;-89
2021/04/28 05:26:20;;;;;;;1.70;0.90;;;22.60;38.50;;;;;;5056740;28;20409;-90
2021/04/28 05:28:46;;;;;;;0.80;0.80;;;22.60;38.40;;;;;;5055057;28;20048;-90
2021/04/28 05:31:12;;;;;;;0.82;0.60;;;22.50;38.40;;;;;;5056752;28;20045;-91
2021/04/28 05:33:38;;;;;;;1.05;0.75;;;22.60;38.40;;;;;;5056882;28;20045;-90
2021/04/28 05:36:05;;;;;;;0.90;0.85;;;22.80;38.60;;;;;;5056657;28;20124;-88
2021/04/28 05:38:30;;;;;;;1.27;0.68;;;23.00;38.30;;;;;;5056565;28;20036;-88
2021/04/28 05:40:57;;;;;;;1.35;0.75;;;23.20;37.80;;;;;;5075659;28;20080;-85
2021/04/28 05:43:23;;;;;;;1.20;0.50;;;23.40;37.70;;;;;;5078879;28;20021;-87
2021/04/28 05:45:50;;;;;;;0.80;0.60;;;23.60;37.50;;;;;;5055793;28;20044;-86
2021/04/28 05:48:16;;;;;;;1.73;0.70;;;23.90;37.30;;;;;;5056307;28;20040;-90
2021/04/28 05:50:43;;;;;;;0.75;0.60;;;24.00;37.20;;;;;;5042190;28;20041;-88
2021/04/28 05:53:10;;;;;;;0.82;0.45;;;24.20;36.60;;;;;;5055261;28;20029;-89
2021/04/28 05:55:36;;;;;;;0.55;0.50;;;24.40;36.50;;;;;;5054715;28;20037;-89
2021/04/28 05:58:03;;;;;;;1.33;1.25;;;24.40;36.30;;;;;;5055094;28;20037;-86
2021/04/28 06:00:30;;;;;;;1.90;1.80;;;24.40;36.20;;;;;;5055010;28;20064;-88
2021/04/28 06:02:56;;;;;;;1.92;1.70;;;24.60;36.10;;;;;;5054840;28;20417;-88
2021/04/28 06:05:22;;;;;;;1.65;1.27;;;24.80;36.20;;;;;;5055191;28;20029;-85
2021/04/28 06:07:48;;;;;;;1.20;1.10;;;24.80;36.10;;;;;;5054861;28;20040;-87
2021/04/28 06:10:19;;;;;;;2.08;1.40;;;24.60;36.20;;;;;;5054029;28;20052;-89
2021/04/28 06:12:45;;;;;;;2.13;1.17;;;24.60;36.10;;;;;;5055173;28;20052;-90
2021/04/28 06:15:13;;;;;;;0.95;0.80;;;24.40;36.00;;;;;;5055025;28;20463;-88
2021/04/28 06:17:43;;;;;;;0.95;0.95;;;24.10;36.00;;;;;;5054891;28;20041;-88
2021/04/28 06:20:14;;;;;;;1.15;1.10;;;23.80;36.10;;;;;;5055173;28;20047;-88
2021/04/28 06:22:41;;;;;;;1.77;1.00;;;23.60;36.50;;;;;;5054621;28;20037;-87
2021/04/28 06:25:09;;;;;;;1.58;0.90;;;23.80;36.70;;;;;;5055436;28;20032;-87
2021/04/28 06:27:37;;;;;;;1.88;1.00;;;24.00;36.30;;;;;;5055871;28;20048;-89
2021/04/28 06:30:06;;;;;;;1.95;0.93;;;24.20;36.10;;;;;;5055555;28;20029;-90
2021/04/28 06:32:32;;;;;;;1.17;1.00;;;24.40;36.10;;;;;;5057440;28;20037;-91
2021/04/28 06:34:58;;;;;;;1.52;0.70;;;24.60;35.90;;;;;;5056743;28;20066;-79
2021/04/28 06:37:24;;;;;;;1.85;0.93;;;24.80;35.60;;;;;;5056679;28;20029;-85
2021/04/28 06:39:50;;;;;;;1.30;0.90;;;24.60;35.20;;;;;;5056949;28;20040;-83
2021/04/28 06:42:16;;;;;;;3.30;1.08;;;24.50;34.70;;;;;;5053557;28;20029;-82
2021/04/28 06:44:43;;;;;;;1.20;1.10;;;24.50;34.70;;;;;;5054543;28;20033;-81
2021/04/28 06:47:09;;;;;;;1.30;1.20;;;24.30;34.70;;;;;;5036386;28;20397;-83
2021/04/28 06:49:35;;;;;;;2.40;1.20;;;24.40;34.60;;;;;;5054452;28;20040;-80
2021/04/28 06:52:01;;;;;;;2.45;1.00;;;24.40;34.30;;;;;;5054325;28;20053;-82
2021/04/28 06:54:27;;;;;;;1.05;0.95;;;24.30;34.10;;;;;;5054357;28;20047;-78
2021/04/28 06:56:53;;;;;;;1.17;1.00;;;24.10;34.10;;;;;;5054360;28;20033;-83
2021/04/28 06:59:21;;;;;;;1.25;1.10;;;24.10;34.10;;;;;;5055180;28;20037;-85
2021/04/28 07:01:54;;;;;;;1.00;1.00;;;24.00;34.20;;;;;;5053863;28;20052;-83
2021/04/28 07:04:21;;;;;;;1.58;1.10;;;24.00;34.30;;;;;;5053521;28;20033;-85
2021/04/28 07:06:49;;;;;;;3.00;1.45;;;23.70;34.20;;;;;;5054153;28;20140;-85
2021/04/28 07:09:16;;;;;;;1.90;1.23;;;23.60;34.20;;;;;;5054297;28;20045;-84
2021/04/28 07:11:42;;;;;;;2.13;1.10;;;23.40;34.10;;;;;;5053502;28;20209;-85
2021/04/28 07:14:08;;;;;;;1.30;1.20;;;23.30;34.40;;;;;;5053238;28;20097;-83
2021/04/28 07:16:34;;;;;;;1.45;1.20;;;23.20;34.80;;;;;;5051893;28;20474;-78
2021/04/28 07:19:09;;;;;;;2.42;1.35;;;23.30;34.70;;;;;;5053336;28;20036;-80
2021/04/28 07:21:44;;;;;;;1.50;1.40;;;23.10;34.60;;;;;;5036857;28;20047;-82
2021/04/28 07:24:10;;;;;;;2.30;1.40;;;22.90;35.00;;;;;;5051782;28;20135;-83
2021/04/28 07:26:36;;;;;;;2.38;1.70;;;22.80;35.20;;;;;;5053074;28;20037;-82
2021/04/28 07:29:02;;;;;;;2.03;1.40;;;22.80;35.20;;;;;;5052985;28;20115;-79
2021/04/28 07:31:29;;;;;;;1.88;1.50;;;22.90;35.20;;;;;;5034699;28;20076;-81
2021/04/28 07:33:57;;;;;;;2.42;1.10;;;23.00;35.40;;;;;;5053042;28;20508;-83
2021/04/28 07:36:26;;;;;;;1.30;1.15;;;23.00;35.50;;;;;;5019337;28;20045;-82
2021/04/28 07:38:53;;;;;;;1.25;1.15;;;22.80;35.50;;;;;;5053177;28;20041;-82
2021/04/28 07:41:19;;;;;;;1.08;1.08;;;22.80;35.50;;;;;;5052223;28;20397;-81
2021/04/28 07:43:45;;;;;;;2.15;0.90;;;22.80;35.50;;;;;;5052608;28;20127;-87
2021/04/28 07:46:12;;;;;;;6.03;1.10;;;22.70;35.30;;;;;;5052806;28;20075;-81
2021/04/28 07:48:38;;;;;;;1.30;1.13;;;22.50;35.00;;;;;;5052716;28;20504;-84
2021/04/28 07:51:04;;;;;;;0.85;0.85;;;22.40;35.20;;;;;;5051430;28;20068;-82
2021/04/28 07:53:30;;;;;;;1.50;0.90;;;22.20;35.30;;;;;;5052881;28;20033;-82
2021/04/28 07:55:56;;;;;;;1.48;1.10;;;22.00;35.60;;;;;;5052424;28;20052;-81
2021/04/28 07:58:22;;;;;;;1.30;1.20;;;22.00;35.60;;;;;;5052351;28;20025;-81
2021/04/28 08:00:48;;;;;;;3.75;1.23;;;21.80;35.60;;;;;;5051289;28;20033;-80
2021/04/28 08:03:14;;;;;;;5.13;1.58;;;21.60;35.80;;;;;;5052796;28;20481;-80
2021/04/28 08:05:40;;;;;;;1.27;1.00;;;21.50;36.00;;;;;;5052690;28;20029;-82
2021/04/28 08:08:06;;;;;;;1.30;1.25;;;21.30;36.30;;;;;;5051730;28;20037;-82
2021/04/28 08:10:33;;;;;;;3.63;1.30;;;21.10;36.60;;;;;;5051234;28;20489;-82
2021/04/28 08:13:01;;;;;;;1.85;1.30;;;20.90;36.80;;;;;;5051204;28;20444;-82
2021/04/28 08:15:27;;;;;;;3.70;1.52;;;20.90;37.00;;;;;;5051919;28;20053;-81
2021/04/28 08:17:53;;;;;;;3.05;1.00;;;20.70;37.30;;;;;;5051498;28;20037;-82
2021/04/28 08:20:19;;;;;;;1.88;1.17;;;20.60;37.80;;;;;;5050989;28;20039;-82
2021/04/28 08:22:45;;;;;;;2.40;1.02;;;20.50;37.60;;;;;;5051119;28;20124;-82
2021/04/28 08:25:13;;;;;;;4.20;1.55;;;20.50;38.00;;;;;;5052772;28;20045;-81
2021/04/28 08:27:39;;;;;;;1.50;1.10;;;20.40;38.10;;;;;;5050750;28;20497;-82
2021/04/28 08:30:09;;;;;;;2.95;1.13;;;20.20;38.10;;;;;;5051220;28;20400;-81
2021/04/28 08:32:35;;;;;;;4.82;1.20;;;20.10;38.20;;;;;;5052196;28;20041;-81
2021/04/28 08:35:01;;;;;;;3.53;1.23;;;19.90;38.40;;;;;;5051082;28;20135;-81
2021/04/28 08:37:27;;;;;;;2.00;1.20;;;19.80;38.80;;;;;;5052055;28;20121;-82
2021/04/28 08:39:53;;;;;;;3.53;1.20;;;19.70;39.20;;;;;;5052178;28;20592;-82
2021/04/28 08:42:19;;;;;;;3.08;0.98;;;19.60;39.60;;;;;;5052470;28;20036;-80
2021/04/28 08:44:45;;;;;;;2.03;1.05;;;19.40;39.50;;;;;;5055437;28;20037;-82
2021/04/28 08:47:13;;;;;;;0.95;0.90;;;19.30;39.40;;;;;;5051624;28;20120;-81
2021/04/28 08:49:39;;;;;;;1.85;1.10;;;19.10;39.50;;;;;;5050929;28;20175;-81
2021/04/28 08:52:05;;;;;;;1.23;1.13;;;19.00;39.70;;;;;;5052153;28;20131;-81
2021/04/28 08:54:31;;;;;;;1.83;1.17;;;18.90;39.80;;;;;;5055944;28;20039;-80
2021/04/28 08:56:58;;;;;;;1.45;1.10;;;18.80;40.10;;;;;;5055848;28;20037;-82
2021/04/28 08:59:25;;;;;;;3.63;1.23;;;18.70;40.30;;;;;;5055595;28;20591;-82
2021/04/28 09:01:51;;;;;;;2.45;1.10;;;18.60;40.20;;;;;;5056219;28;20037;-83
2021/04/28 09:04:19;;;;;;;2.20;1.20;;;18.50;40.30;;;;;;5055110;28;20503;-81
2021/04/28 09:06:46;;;;;;;1.58;1.30;;;18.50;40.50;;;;;;5054736;28;20103;-82
2021/04/28 09:09:18;;;;;;;1.40;1.10;;;18.40;40.70;;;;;;5054618;28;20036;-82
2021/04/28 09:11:51;;;;;;;1.73;0.90;;;18.40;40.40;;;;;;5054549;28;20044;-81
2021/04/28 09:14:18;;;;;;;3.78;1.15;;;18.30;40.40;;;;;;5054485;28;20048;-82
2021/04/28 09:17:01;;;;;;;1.33;1.20;;;18.20;40.40;;;;;;5054426;28;20041;-82
2021/04/28 09:19:53;;;;;;;2.63;1.17;;;18.20;40.30;;;;;;5055778;28;20044;-83
2021/04/28 09:22:38;;;;;;;1.90;1.40;;;18.20;40.30;;;;;;5055903;28;20083;-81
2021/04/28 09:25:42;;;;;;;4.13;1.30;;;18.20;40.20;;;;;;5055796;28;20515;-82
2021/04/28 09:28:31;;;;;;;2.22;1.50;;;18.10;40.30;;;;;;5054371;28;20527;-83
2021/04/28 09:31:07;;;;;;;0.90;0.90;;;18.10;40.50;;;;;;5054159;28;20049;-82
2021/04/28 09:33:51;;;;;;;1.73;1.00;;;18.00;40.60;;;;;;5055093;28;20124;-82
2021/04/28 09:36:40;;;;;;;0.93;0.80;;;17.90;40.60;;;;;;5055078;28;20033;-82
2021/04/28 09:39:18;;;;;;;0.70;0.70;;;17.80;40.90;;;;;;5053615;28;20074;-82
2021/04/28 09:41:46;;;;;;;1.63;0.90;;;17.80;41.20;;;;;;5037939;28;20509;-80
2021/04/28 09:44:18;;;;;;;2.78;0.70;;;17.70;41.40;;;;;;5055205;28;20173;-81
2021/04/28 09:47:09;;;;;;;2.35;0.93;;;17.60;41.40;;;;;;5054099;28;20045;-81
2021/04/28 09:49:47;;;;;;;0.70;0.70;;;17.60;41.60;;;;;;5046675;28;20048;-81
2021/04/28 09:52:18;;;;;;;3.30;1.02;;;17.40;41.70;;;;;;5055020;28;20443;-82
2021/04/28 09:54:47;;;;;;;0.80;0.80;;;17.40;41.80;;;;;;5054711;28;20040;-81
2021/04/28 09:57:18;;;;;;;1.88;1.27;;;17.40;41.80;;;;;;5055251;28;20090;-82
2021/04/28 09:59:51;;;;;;;1.50;0.80;;;17.30;41.80;;;;;;5053785;28;20045;-81
2021/04/28 10:02:28;;;;;;;1.65;0.95;;;17.40;41.90;;;;;;5053659;28;20037;-82
2021/04/28 10:05:24;;;;;;;2.40;1.10;;;17.30;41.70;;;;;;5053652;28;20041;-80
2021/04/28 10:08:07;;;;;;;1.38;0.90;;;17.30;41.90;;;;;;5053321;28;20033;-81
2021/04/28 10:10:34;;;;;;;3.03;1.17;;;17.30;42.00;;;;;;5054650;28;20127;-81
2021/04/28 10:13:00;;;;;;;1.33;1.23;;;17.20;42.00;;;;;;5053134;28;20037;-81
2021/04/28 10:15:26;;;;;;;2.78;0.90;;;17.10;42.00;;;;;;5036280;28;20509;-82
2021/04/28 10:17:54;;;;;;;2.28;0.88;;;17.00;42.20;;;;;;5054663;28;20060;-82
2021/04/28 10:20:20;;;;;;;1.08;1.00;;;17.00;42.30;;;;;;5037420;28;20124;-81
2021/04/28 10:22:49;;;;;;;1.00;0.82;;;17.00;42.50;;;;;;5054179;28;20041;-80
2021/04/28 10:25:17;;;;;;;1.83;1.00;;;17.00;42.60;;;;;;5053104;28;20025;-82
2021/04/28 10:27:45;;;;;;;1.45;1.30;;;17.00;42.50;;;;;;5054009;28;20048;-80
2021/04/28 10:30:16;;;;;;;2.53;1.30;;;16.90;42.40;;;;;;5053115;28;20044;-82
2021/04/28 10:32:43;;;;;;;3.15;1.20;;;16.90;42.40;;;;;;5055005;28;20091;-82
2021/04/28 10:35:21;;;;;;;3.40;1.27;;;16.80;42.60;;;;;;5056472;28;20067;-81
2021/04/28 10:37:51;;;;;;;5.53;1.50;;;16.80;42.90;;;;;;5064726;28;20512;-88
2021/04/28 10:40:22;;;;;;;3.80;1.35;;;16.70;43.10;;;;;;5058680;28;20040;-82
2021/04/28 10:42:51;;;;;;;3.03;1.38;;;16.70;43.40;;;;;;5057084;28;20037;-84
2021/04/28 10:45:23;;;;;;;1.83;1.33;;;16.70;43.50;;;;;;5052837;28;20619;-83
2021/04/28 10:47:54;;;;;;;1.77;1.00;;;16.70;43.80;;;;;;5053079;28;20037;-85
2021/04/28 10:50:35;;;;;;;1.55;1.20;;;16.70;43.80;;;;;;5036074;28;20086;-86
2021/04/28 10:53:21;;;;;;;3.00;1.50;;;16.70;43.90;;;;;;5053845;28;20060;-85
2021/04/28 10:55:53;;;;;;;2.05;1.33;;;16.70;43.90;;;;;;5054043;28;20040;-88
2021/04/28 11:01:06;;;;;;;2.65;1.38;;;16.60;43.70;;;;;;5052787;28;20458;-85
2021/04/28 11:03:41;;;;;;;2.58;1.30;;;16.50;43.80;;;;;;5035628;28;20075;-84
2021/04/28 11:09:07;;;;;;;2.33;1.38;;;16.40;43.90;;;;;;5052724;28;20192;-85
2021/04/28 11:11:38;;;;;;;4.20;1.23;;;16.40;44.00;;;;;;5054428;28;20115;-86
2021/04/28 11:14:20;;;;;;;1.90;1.33;;;16.50;44.30;;;;;;5053975;28;20111;-85
2021/04/28 11:16:48;;;;;;;2.30;1.30;;;16.50;44.60;;;;;;5052459;28;20029;-86
2021/04/28 11:19:17;;;;;;;1.63;1.40;;;16.50;44.80;;;;;;5053759;28;20489;-82
2021/04/28 11:21:44;;;;;;;3.60;1.75;;;16.50;44.70;;;;;;5053652;28;20112;-85
2021/04/28 11:24:15;;;;;;;3.33;1.48;;;16.50;44.80;;;;;;5052290;28;20083;-88
2021/04/28 11:26:50;;;;;;;2.08;1.27;;;16.40;45.00;;;;;;5053481;28;20037;-88
2021/04/28 11:29:17;;;;;;;6.33;1.47;;;16.40;44.90;;;;;;5052204;28;20106;-87
2021/04/28 11:31:54;;;;;;;3.38;2.05;;;16.50;44.80;;;;;;5053682;28;20622;-86
2021/04/28 11:34:26;;;;;;;1.90;1.30;;;16.50;45.00;;;;;;5052090;28;20040;-88
2021/04/28 11:37:04;;;;;;;2.13;1.70;;;16.50;45.10;;;;;;5053148;28;20044;-88
2021/04/28 11:39:39;;;;;;;2.85;1.58;;;16.50;45.10;;;;;;5053436;28;20505;-85
2021/04/28 11:42:19;;;;;;;2.95;1.50;;;16.60;45.20;;;;;;5053327;28;20040;-82
2021/04/28 11:44:50;;;;;;;1.60;1.35;;;16.60;45.00;;;;;;5064180;28;20062;-83
2021/04/28 11:47:19;;;;;;;3.08;1.42;;;16.60;45.20;;;;;;5060436;28;20036;-84
2021/04/28 11:49:51;;;;;;;3.35;1.60;;;16.60;45.00;;;;;;5053002;28;20111;-84
2021/04/28 11:52:21;;;;;;;1.27;1.17;;;16.60;44.80;;;;;;5035230;28;20406;-86
2021/04/28 11:54:56;;;;;;;1.50;1.33;;;16.60;44.70;;;;;;5051411;28;20566;-83
2021/04/28 11:57:29;;;;;;;2.17;1.20;;;16.60;44.60;;;;;;5035100;28;20036;-82
2021/04/28 12:00:06;;;;;;;2.97;1.42;;;16.60;44.50;;;;;;5035481;28;20048;-84
2021/04/28 12:02:33;;;;;;;6.05;1.83;;;16.60;44.60;;;;;;5053363;28;20033;-84
2021/04/28 12:04:59;;;;;;;1.48;1.38;;;16.60;44.60;;;;;;5053043;28;20040;-87
2021/04/28 12:07:24;;;;;;;4.45;1.67;;;16.60;44.50;;;;;;5052404;28;20078;-84
2021/04/28 12:09:52;;;;;;;1.50;1.38;;;16.50;44.40;;;;;;5052665;28;20040;-86
2021/04/28 12:12:33;;;;;;;1.67;1.38;;;16.50;44.30;;;;;;5051333;28;20044;-87
2021/04/28 12:15:05;;;;;;;2.53;1.70;;;16.50;44.20;;;;;;5034700;28;20084;-86
2021/04/28 12:17:36;;;;;;;4.00;1.67;;;16.40;44.30;;;;;;5052417;28;20041;-84
2021/04/28 12:20:09;;;;;;;3.05;1.70;;;16.40;44.40;;;;;;5051048;28;20041;-85
2021/04/28 12:22:36;;;;;;;3.13;2.08;;;16.30;44.40;;;;;;5051652;28;20508;-84
2021/04/28 12:25:04;;;;;;;2.97;1.80;;;16.30;44.30;;;;;;5034651;28;20064;-86
2021/04/28 12:27:41;;;;;;;2.15;1.50;;;16.30;44.30;;;;;;5050580;28;20131;-84
2021/04/28 12:30:24;;;;;;;2.80;1.33;;;16.20;44.30;;;;;;5059298;28;20079;-83
2021/04/28 12:32:56;;;;;;;2.63;1.70;;;16.20;44.40;;;;;;5034169;28;20056;-84
2021/04/28 12:35:31;;;;;;;2.53;1.70;;;16.20;44.50;;;;;;5051260;28;20061;-85
2021/04/28 12:38:11;;;;;;;1.80;1.45;;;16.20;44.60;;;;;;5034853;28;20055;-87
2021/04/28 12:40:40;;;;;;;4.13;1.75;;;16.20;44.70;;;;;;5051410;28;20035;-88
2021/04/28 12:43:10;;;;;;;4.28;1.73;;;16.20;44.70;;;;;;5052310;28;20520;-84
2021/04/28 12:45:39;;;;;;;1.98;1.83;;;16.20;44.70;;;;;;5050896;28;20039;-80
2021/04/28 12:48:10;;;;;;;1.58;1.40;;;16.20;44.70;;;;;;5052387;28;20037;-81
2021/04/28 12:50:40;;;;;;;2.80;1.90;;;16.20;44.60;;;;;;5051792;28;20397;-82
2021/04/28 12:53:15;;;;;;;2.45;1.67;;;16.10;44.50;;;;;;5050741;28;20048;-79
2021/04/28 12:55:45;;;;;;;2.83;2.00;;;16.10;44.60;;;;;;5051278;28;20041;-78
2021/04/28 12:58:12;;;;;;;2.75;2.13;;;16.10;44.60;;;;;;5052250;28;20299;-79
2021/04/28 13:00:49;;;;;;;4.45;2.10;;;16.10;44.40;;;;;;5050600;28;20029;-78
2021/04/28 13:03:27;;;;;;;3.40;1.88;;;16.10;44.50;;;;;;5052152;28;20045;-78
2021/04/28 13:05:56;;;;;;;4.72;2.00;;;16.10;44.60;;;;;;5034222;28;20033;-78
2021/04/28 13:08:44;;;;;;;3.72;1.52;;;16.00;44.60;;;;;;5052141;28;20521;-79
2021/04/28 13:11:27;;;;;;;6.05;2.10;;;16.00;44.60;;;;;;5034539;28;20509;-78
2021/04/28 13:13:57;;;;;;;6.18;2.55;;;16.00;44.80;;;;;;5052273;28;20061;-78